createdAt,value
2017-06-11T00:00:02.166Z,15.71
2017-06-11T00:10:02.933Z,15.55
2017-06-11T00:20:02.183Z,15.41
2017-06-11T00:30:02.650Z,15.29
2017-06-11T00:40:02.376Z,15.21
2017-06-11T00:50:03.092Z,15.07
2017-06-11T01:00:02.526Z,14.96
2017-06-11T01:10:02.596Z,14.88
2017-06-11T01:20:02.455Z,14.79
2017-06-11T01:30:02.937Z,14.68
2017-06-11T01:40:02.140Z,14.59
2017-06-11T01:50:02.310Z,14.53
2017-06-11T02:00:02.735Z,14.44
2017-06-11T02:10:02.488Z,14.33
2017-06-11T02:20:02.199Z,14.25
2017-06-11T02:30:02.657Z,14.2
2017-06-11T02:40:02.832Z,14.15
2017-06-11T02:50:02.851Z,14.15
2017-06-11T03:00:02.332Z,14.12
2017-06-11T03:10:02.470Z,14.15
2017-06-11T03:20:02.397Z,14.21
2017-06-11T03:30:02.867Z,14.27
2017-06-11T03:40:02.499Z,14.36
2017-06-11T03:50:02.274Z,14.49
2017-06-11T04:00:02.693Z,14.63
2017-06-11T04:10:02.945Z,14.93
2017-06-11T04:20:02.860Z,15.16
2017-06-11T04:30:02.286Z,15.31
2017-06-11T04:40:03.139Z,15.36
2017-06-11T04:50:02.307Z,15.33
2017-06-11T05:00:02.768Z,15.57
2017-06-11T05:10:03.124Z,15.84
2017-06-11T05:20:03.137Z,15.88
2017-06-11T05:30:02.592Z,15.92
2017-06-11T05:40:03.074Z,16.2
2017-06-11T05:50:03.114Z,16.37
2017-06-11T06:00:02.620Z,16.57
2017-06-11T06:10:02.586Z,16.87
2017-06-11T06:20:02.283Z,17.13
2017-06-11T06:30:02.742Z,17.44
2017-06-11T06:40:02.792Z,17.78
2017-06-11T06:50:02.808Z,19.03
2017-06-11T07:00:02.266Z,20.43
2017-06-11T07:10:02.883Z,21.88
2017-06-11T07:20:02.988Z,22.87
2017-06-11T07:30:02.431Z,23.41
2017-06-11T07:40:02.709Z,24.23
2017-06-11T07:50:02.172Z,25.19
2017-06-11T08:00:02.605Z,26.01
2017-06-11T08:10:02.899Z,26.62
2017-06-11T08:20:02.854Z,26.89
2017-06-11T08:30:02.328Z,27.45
2017-06-11T08:40:02.988Z,27.98
2017-06-11T08:50:02.963Z,28.83
2017-06-11T09:00:02.427Z,28.98
2017-06-11T09:10:02.408Z,29.22
2017-06-11T09:20:02.984Z,29.43
2017-06-11T09:30:02.470Z,27.97
2017-06-11T09:40:02.990Z,28.46
2017-06-11T09:50:02.227Z,28.9
2017-06-11T10:00:02.677Z,28.49
2017-06-11T10:10:02.932Z,28.01
2017-06-11T10:20:02.167Z,27.39
2017-06-11T10:30:02.613Z,27.56
2017-06-11T10:40:02.241Z,28.37
2017-06-11T10:50:02.249Z,28.68
2017-06-11T11:00:02.729Z,28.63
2017-06-11T11:10:02.750Z,28.12
2017-06-11T11:20:02.595Z,28.32
2017-06-11T11:30:03.054Z,28.28
2017-06-11T11:40:02.626Z,27.83
2017-06-11T11:50:02.605Z,27.56
2017-06-11T12:00:03.030Z,27.37
2017-06-11T12:10:02.512Z,27.31
2017-06-11T12:20:02.585Z,27.29
2017-06-11T12:30:03.078Z,27.38
2017-06-11T12:40:02.587Z,28.12
2017-06-11T12:50:03.075Z,27.94
2017-06-11T13:00:02.504Z,27.8
2017-06-11T13:10:02.459Z,27.81
2017-06-11T13:20:02.641Z,27.66
2017-06-11T13:30:03.100Z,27.86
2017-06-11T13:40:02.571Z,27.39
2017-06-11T13:50:02.420Z,27.3
2017-06-11T14:00:02.869Z,27.01
2017-06-11T14:10:02.379Z,26.72
2017-06-11T14:20:02.449Z,26.75
2017-06-11T14:30:02.934Z,26.54
2017-06-11T14:40:02.396Z,26.71
2017-06-11T14:50:02.253Z,26.76
2017-06-11T15:00:02.768Z,26.38
2017-06-11T15:10:02.268Z,26.43
2017-06-11T15:20:02.295Z,26.33
2017-06-11T15:30:02.792Z,25.93
2017-06-11T15:40:02.282Z,25.6
2017-06-11T15:50:02.221Z,25.42
2017-06-11T16:00:02.664Z,25.38
2017-06-11T16:10:02.152Z,25.42
2017-06-11T16:20:02.168Z,25.43
2017-06-11T16:30:02.653Z,25.43
2017-06-11T16:40:03.136Z,25.32
2017-06-11T16:50:03.110Z,25.19
2017-06-11T17:00:02.565Z,25.06
2017-06-11T17:10:03.057Z,24.93
2017-06-11T17:20:03.120Z,24.6
2017-06-11T17:30:02.616Z,24.28
2017-06-11T17:40:03.093Z,24.01
2017-06-11T17:50:02.961Z,23.71
2017-06-11T18:00:02.437Z,23.41
2017-06-11T18:10:02.951Z,23.14
2017-06-11T18:20:02.973Z,22.88
2017-06-11T18:30:02.478Z,22.65
2017-06-11T18:40:02.954Z,22.56
2017-06-11T18:50:02.849Z,22.02
2017-06-11T19:00:02.314Z,21.42
2017-06-11T19:10:02.805Z,20.94
2017-06-11T19:20:02.816Z,20.58
2017-06-11T19:30:02.321Z,20.39
2017-06-11T19:40:02.764Z,20.32
2017-06-11T19:50:02.756Z,20.19
2017-06-11T20:00:02.208Z,20.1
2017-06-11T20:10:02.701Z,19.98
2017-06-11T20:20:02.838Z,19.88
2017-06-11T20:30:02.326Z,19.81
2017-06-11T20:40:02.794Z,19.71
2017-06-11T20:50:02.682Z,19.61
2017-06-11T21:00:02.192Z,19.52
2017-06-11T21:10:02.707Z,19.43
2017-06-11T21:20:02.753Z,19.33
2017-06-11T21:30:02.240Z,19.27
2017-06-11T21:40:02.707Z,19.24
2017-06-11T21:50:02.625Z,19.2
2017-06-11T22:00:02.147Z,19.14
2017-06-11T22:10:02.653Z,19.06
2017-06-11T22:20:02.710Z,18.96
2017-06-11T22:30:02.184Z,18.89
2017-06-11T22:40:02.670Z,18.86
2017-06-11T22:50:02.540Z,18.83
2017-06-11T23:00:02.991Z,18.8
2017-06-11T23:10:02.481Z,18.72
2017-06-11T23:20:02.488Z,18.62
2017-06-11T23:30:02.936Z,18.55
2017-06-11T23:40:02.436Z,18.49
2017-06-11T23:50:02.324Z,18.36
